sensor_id;sensor_type;location;lat;lon;timestamp;P1;durP1;ratioP1;P2;durP2;ratioP2
62861;SDS011;48953;53.110;5.592;2023-07-13T00:00:25;2.97;;;0.90;;
62861;SDS011;48953;53.110;5.592;2023-07-13T00:02:51;2.92;;;0.93;;
62861;SDS011;48953;53.110;5.592;2023-07-13T00:05:19;2.47;;;0.63;;
62861;SDS011;48953;53.110;5.592;2023-07-13T00:07:45;1.50;;;0.50;;
62861;SDS011;48953;53.110;5.592;2023-07-13T00:10:11;4.35;;;0.60;;
62861;SDS011;48953;53.110;5.592;2023-07-13T00:12:38;3.45;;;1.02;;
62861;SDS011;48953;53.110;5.592;2023-07-13T00:15:06;1.70;;;0.65;;
62861;SDS011;48953;53.110;5.592;2023-07-13T00:17:32;0.70;;;0.38;;
62861;SDS011;48953;53.110;5.592;2023-07-13T00:19:58;2.05;;;0.60;;
62861;SDS011;48953;53.110;5.592;2023-07-13T00:22:25;3.08;;;0.50;;
62861;SDS011;48953;53.110;5.592;2023-07-13T00:24:54;1.42;;;0.45;;
62861;SDS011;48953;53.110;5.592;2023-07-13T00:27:23;4.30;;;0.65;;
62861;SDS011;48953;53.110;5.592;2023-07-13T00:29:51;3.60;;;0.55;;
62861;SDS011;48953;53.110;5.592;2023-07-13T00:32:17;2.22;;;0.82;;
62861;SDS011;48953;53.110;5.592;2023-07-13T00:34:44;1.95;;;0.50;;
62861;SDS011;48953;53.110;5.592;2023-07-13T00:37:10;3.47;;;0.60;;
62861;SDS011;48953;53.110;5.592;2023-07-13T00:39:36;3.35;;;0.50;;
62861;SDS011;48953;53.110;5.592;2023-07-13T00:42:03;3.78;;;0.50;;
62861;SDS011;48953;53.110;5.592;2023-07-13T00:44:29;1.45;;;0.50;;
62861;SDS011;48953;53.110;5.592;2023-07-13T00:46:55;3.33;;;0.70;;
62861;SDS011;48953;53.110;5.592;2023-07-13T00:49:23;2.70;;;0.57;;
62861;SDS011;48953;53.110;5.592;2023-07-13T00:51:52;19.10;;;1.05;;
62861;SDS011;48953;53.110;5.592;2023-07-13T00:54:20;2.88;;;0.50;;
62861;SDS011;48953;53.110;5.592;2023-07-13T00:56:48;4.85;;;0.68;;
62861;SDS011;48953;53.110;5.592;2023-07-13T00:59:15;1.95;;;0.60;;
62861;SDS011;48953;53.110;5.592;2023-07-13T01:01:42;4.10;;;0.70;;
62861;SDS011;48953;53.110;5.592;2023-07-13T01:04:09;2.72;;;0.90;;
62861;SDS011;48953;53.110;5.592;2023-07-13T01:06:36;4.10;;;1.00;;
62861;SDS011;48953;53.110;5.592;2023-07-13T01:09:03;4.88;;;1.00;;
62861;SDS011;48953;53.110;5.592;2023-07-13T01:11:30;2.53;;;0.70;;
62861;SDS011;48953;53.110;5.592;2023-07-13T01:13:56;2.85;;;0.70;;
62861;SDS011;48953;53.110;5.592;2023-07-13T01:16:26;2.53;;;0.80;;
62861;SDS011;48953;53.110;5.592;2023-07-13T01:18:53;3.25;;;1.00;;
62861;SDS011;48953;53.110;5.592;2023-07-13T01:21:23;4.00;;;0.80;;
62861;SDS011;48953;53.110;5.592;2023-07-13T01:23:49;3.38;;;0.93;;
62861;SDS011;48953;53.110;5.592;2023-07-13T01:26:15;5.15;;;1.02;;
62861;SDS011;48953;53.110;5.592;2023-07-13T01:28:42;3.83;;;1.20;;
62861;SDS011;48953;53.110;5.592;2023-07-13T01:31:08;4.03;;;1.00;;
62861;SDS011;48953;53.110;5.592;2023-07-13T01:33:35;3.53;;;0.80;;
62861;SDS011;48953;53.110;5.592;2023-07-13T01:36:02;4.20;;;1.25;;
62861;SDS011;48953;53.110;5.592;2023-07-13T01:38:28;5.20;;;1.20;;
62861;SDS011;48953;53.110;5.592;2023-07-13T01:40:54;6.68;;;1.35;;
62861;SDS011;48953;53.110;5.592;2023-07-13T01:43:20;2.85;;;0.90;;
62861;SDS011;48953;53.110;5.592;2023-07-13T01:45:46;3.88;;;1.10;;
62861;SDS011;48953;53.110;5.592;2023-07-13T01:48:12;5.07;;;1.02;;
62861;SDS011;48953;53.110;5.592;2023-07-13T01:50:39;2.88;;;1.10;;
62861;SDS011;48953;53.110;5.592;2023-07-13T01:53:05;4.10;;;1.08;;
62861;SDS011;48953;53.110;5.592;2023-07-13T01:55:31;3.58;;;1.35;;
62861;SDS011;48953;53.110;5.592;2023-07-13T01:57:57;6.70;;;1.20;;
62861;SDS011;48953;53.110;5.592;2023-07-13T02:00:24;6.45;;;1.30;;
62861;SDS011;48953;53.110;5.592;2023-07-13T02:02:50;10.18;;;1.60;;
62861;SDS011;48953;53.110;5.592;2023-07-13T02:05:16;5.25;;;1.35;;
62861;SDS011;48953;53.110;5.592;2023-07-13T02:07:42;6.05;;;1.40;;
62861;SDS011;48953;53.110;5.592;2023-07-13T02:10:09;9.20;;;1.50;;
62861;SDS011;48953;53.110;5.592;2023-07-13T02:12:35;7.40;;;1.60;;
62861;SDS011;48953;53.110;5.592;2023-07-13T02:15:02;8.25;;;1.25;;
62861;SDS011;48953;53.110;5.592;2023-07-13T02:17:28;5.72;;;1.40;;
62861;SDS011;48953;53.110;5.592;2023-07-13T02:19:54;7.70;;;1.50;;
62861;SDS011;48953;53.110;5.592;2023-07-13T02:22:20;4.60;;;1.77;;
62861;SDS011;48953;53.110;5.592;2023-07-13T02:24:47;5.20;;;1.70;;
62861;SDS011;48953;53.110;5.592;2023-07-13T02:27:13;6.90;;;2.05;;
62861;SDS011;48953;53.110;5.592;2023-07-13T02:29:39;5.50;;;1.50;;
62861;SDS011;48953;53.110;5.592;2023-07-13T02:32:05;8.40;;;1.67;;
62861;SDS011;48953;53.110;5.592;2023-07-13T02:34:32;6.70;;;1.60;;
62861;SDS011;48953;53.110;5.592;2023-07-13T02:36:58;7.65;;;1.98;;
62861;SDS011;48953;53.110;5.592;2023-07-13T02:39:24;9.68;;;1.92;;
62861;SDS011;48953;53.110;5.592;2023-07-13T02:41:50;10.18;;;1.73;;
62861;SDS011;48953;53.110;5.592;2023-07-13T02:44:16;8.52;;;2.10;;
62861;SDS011;48953;53.110;5.592;2023-07-13T02:46:42;9.43;;;1.65;;
62861;SDS011;48953;53.110;5.592;2023-07-13T02:49:08;8.32;;;1.85;;
62861;SDS011;48953;53.110;5.592;2023-07-13T02:51:34;9.95;;;2.00;;
62861;SDS011;48953;53.110;5.592;2023-07-13T02:54:01;4.63;;;2.00;;
62861;SDS011;48953;53.110;5.592;2023-07-13T02:56:29;7.40;;;2.28;;
62861;SDS011;48953;53.110;5.592;2023-07-13T02:58:56;8.50;;;2.35;;
62861;SDS011;48953;53.110;5.592;2023-07-13T03:01:22;6.70;;;2.05;;
62861;SDS011;48953;53.110;5.592;2023-07-13T03:03:49;9.05;;;2.53;;
62861;SDS011;48953;53.110;5.592;2023-07-13T03:06:15;7.50;;;2.10;;
62861;SDS011;48953;53.110;5.592;2023-07-13T03:08:42;5.15;;;2.33;;
62861;SDS011;48953;53.110;5.592;2023-07-13T03:11:09;10.50;;;2.50;;
62861;SDS011;48953;53.110;5.592;2023-07-13T03:13:39;9.63;;;2.60;;
62861;SDS011;48953;53.110;5.592;2023-07-13T03:16:05;7.18;;;2.22;;
62861;SDS011;48953;53.110;5.592;2023-07-13T03:18:31;7.32;;;2.47;;
62861;SDS011;48953;53.110;5.592;2023-07-13T03:20:58;8.95;;;2.70;;
62861;SDS011;48953;53.110;5.592;2023-07-13T03:23:24;10.25;;;2.88;;
62861;SDS011;48953;53.110;5.592;2023-07-13T03:25:50;7.78;;;2.22;;
62861;SDS011;48953;53.110;5.592;2023-07-13T03:28:16;9.90;;;2.40;;
62861;SDS011;48953;53.110;5.592;2023-07-13T03:30:42;6.22;;;2.10;;
62861;SDS011;48953;53.110;5.592;2023-07-13T03:33:08;6.63;;;2.40;;
62861;SDS011;48953;53.110;5.592;2023-07-13T03:35:35;7.13;;;2.40;;
62861;SDS011;48953;53.110;5.592;2023-07-13T03:38:01;4.80;;;2.20;;
62861;SDS011;48953;53.110;5.592;2023-07-13T03:40:27;7.68;;;2.47;;
62861;SDS011;48953;53.110;5.592;2023-07-13T03:42:53;5.93;;;2.42;;
62861;SDS011;48953;53.110;5.592;2023-07-13T03:45:19;4.80;;;2.42;;
62861;SDS011;48953;53.110;5.592;2023-07-13T03:47:45;6.47;;;2.72;;
62861;SDS011;48953;53.110;5.592;2023-07-13T03:50:11;8.70;;;2.63;;
62861;SDS011;48953;53.110;5.592;2023-07-13T03:52:37;9.23;;;2.80;;
62861;SDS011;48953;53.110;5.592;2023-07-13T03:55:04;7.45;;;2.25;;
62861;SDS011;48953;53.110;5.592;2023-07-13T03:57:31;8.23;;;3.33;;
62861;SDS011;48953;53.110;5.592;2023-07-13T03:59:57;7.80;;;2.70;;
62861;SDS011;48953;53.110;5.592;2023-07-13T04:02:23;8.45;;;2.60;;
62861;SDS011;48953;53.110;5.592;2023-07-13T04:04:49;6.93;;;2.17;;
62861;SDS011;48953;53.110;5.592;2023-07-13T04:07:15;9.95;;;2.70;;
62861;SDS011;48953;53.110;5.592;2023-07-13T04:09:42;7.45;;;2.65;;
62861;SDS011;48953;53.110;5.592;2023-07-13T04:12:08;9.70;;;2.60;;
62861;SDS011;48953;53.110;5.592;2023-07-13T04:14:34;8.00;;;2.65;;
62861;SDS011;48953;53.110;5.592;2023-07-13T04:17:00;7.82;;;2.63;;
62861;SDS011;48953;53.110;5.592;2023-07-13T04:19:26;6.00;;;2.35;;
62861;SDS011;48953;53.110;5.592;2023-07-13T04:21:52;9.00;;;2.60;;
62861;SDS011;48953;53.110;5.592;2023-07-13T04:24:24;8.45;;;2.15;;
62861;SDS011;48953;53.110;5.592;2023-07-13T04:26:51;8.48;;;2.38;;
62861;SDS011;48953;53.110;5.592;2023-07-13T04:29:17;5.20;;;2.03;;
62861;SDS011;48953;53.110;5.592;2023-07-13T04:31:43;4.47;;;1.85;;
62861;SDS011;48953;53.110;5.592;2023-07-13T04:34:09;6.28;;;2.08;;
62861;SDS011;48953;53.110;5.592;2023-07-13T04:36:35;3.58;;;1.80;;
62861;SDS011;48953;53.110;5.592;2023-07-13T04:39:02;4.75;;;1.80;;
62861;SDS011;48953;53.110;5.592;2023-07-13T04:41:28;7.25;;;2.28;;
62861;SDS011;48953;53.110;5.592;2023-07-13T04:43:54;4.25;;;1.95;;
62861;SDS011;48953;53.110;5.592;2023-07-13T04:46:21;5.00;;;1.90;;
62861;SDS011;48953;53.110;5.592;2023-07-13T04:48:49;4.97;;;1.80;;
62861;SDS011;48953;53.110;5.592;2023-07-13T04:51:16;4.60;;;1.73;;
62861;SDS011;48953;53.110;5.592;2023-07-13T04:53:42;3.55;;;1.40;;
62861;SDS011;48953;53.110;5.592;2023-07-13T04:56:08;4.07;;;1.60;;
62861;SDS011;48953;53.110;5.592;2023-07-13T04:58:34;5.95;;;1.58;;
62861;SDS011;48953;53.110;5.592;2023-07-13T05:01:03;3.80;;;1.40;;
62861;SDS011;48953;53.110;5.592;2023-07-13T05:03:30;4.88;;;1.60;;
62861;SDS011;48953;53.110;5.592;2023-07-13T05:05:57;4.72;;;1.80;;
62861;SDS011;48953;53.110;5.592;2023-07-13T05:08:23;4.97;;;1.40;;
62861;SDS011;48953;53.110;5.592;2023-07-13T05:10:50;4.28;;;1.45;;
62861;SDS011;48953;53.110;5.592;2023-07-13T05:13:16;5.25;;;1.40;;
62861;SDS011;48953;53.110;5.592;2023-07-13T05:15:42;4.97;;;1.50;;
62861;SDS011;48953;53.110;5.592;2023-07-13T05:18:08;4.22;;;1.35;;
62861;SDS011;48953;53.110;5.592;2023-07-13T05:20:34;1.58;;;1.10;;
62861;SDS011;48953;53.110;5.592;2023-07-13T05:23:00;2.22;;;0.93;;
62861;SDS011;48953;53.110;5.592;2023-07-13T05:25:26;6.38;;;1.23;;
62861;SDS011;48953;53.110;5.592;2023-07-13T05:27:52;3.58;;;1.15;;
62861;SDS011;48953;53.110;5.592;2023-07-13T05:30:18;3.40;;;1.30;;
62861;SDS011;48953;53.110;5.592;2023-07-13T05:32:44;4.05;;;1.25;;
62861;SDS011;48953;53.110;5.592;2023-07-13T05:35:10;3.33;;;1.30;;
62861;SDS011;48953;53.110;5.592;2023-07-13T05:37:37;3.42;;;1.10;;
62861;SDS011;48953;53.110;5.592;2023-07-13T05:40:03;3.28;;;1.20;;
62861;SDS011;48953;53.110;5.592;2023-07-13T05:42:29;3.08;;;1.40;;
62861;SDS011;48953;53.110;5.592;2023-07-13T05:44:56;6.13;;;1.30;;
62861;SDS011;48953;53.110;5.592;2023-07-13T05:47:22;3.70;;;1.27;;
62861;SDS011;48953;53.110;5.592;2023-07-13T05:49:48;3.55;;;1.02;;
62861;SDS011;48953;53.110;5.592;2023-07-13T05:52:14;3.53;;;1.30;;
62861;SDS011;48953;53.110;5.592;2023-07-13T05:54:40;1.80;;;1.02;;
62861;SDS011;48953;53.110;5.592;2023-07-13T05:57:06;3.40;;;1.30;;
62861;SDS011;48953;53.110;5.592;2023-07-13T05:59:32;3.88;;;1.25;;
62861;SDS011;48953;53.110;5.592;2023-07-13T06:01:58;3.65;;;1.05;;
62861;SDS011;48953;53.110;5.592;2023-07-13T06:04:24;3.78;;;1.15;;
62861;SDS011;48953;53.110;5.592;2023-07-13T06:06:50;3.90;;;1.25;;
62861;SDS011;48953;53.110;5.592;2023-07-13T06:09:17;3.03;;;1.30;;
62861;SDS011;48953;53.110;5.592;2023-07-13T06:11:43;5.50;;;1.30;;
62861;SDS011;48953;53.110;5.592;2023-07-13T06:14:10;2.53;;;1.05;;
62861;SDS011;48953;53.110;5.592;2023-07-13T06:16:36;3.55;;;1.13;;
62861;SDS011;48953;53.110;5.592;2023-07-13T06:19:02;2.42;;;1.00;;
62861;SDS011;48953;53.110;5.592;2023-07-13T06:21:28;2.88;;;1.00;;
62861;SDS011;48953;53.110;5.592;2023-07-13T06:23:54;2.95;;;1.10;;
62861;SDS011;48953;53.110;5.592;2023-07-13T06:26:20;2.42;;;1.10;;
62861;SDS011;48953;53.110;5.592;2023-07-13T06:28:46;2.25;;;1.00;;
62861;SDS011;48953;53.110;5.592;2023-07-13T06:31:13;3.88;;;1.35;;
62861;SDS011;48953;53.110;5.592;2023-07-13T06:33:40;3.90;;;1.08;;
62861;SDS011;48953;53.110;5.592;2023-07-13T06:36:06;3.88;;;1.10;;
62861;SDS011;48953;53.110;5.592;2023-07-13T06:38:33;3.72;;;1.20;;
62861;SDS011;48953;53.110;5.592;2023-07-13T06:40:59;3.65;;;1.00;;
62861;SDS011;48953;53.110;5.592;2023-07-13T06:43:26;5.25;;;1.27;;
62861;SDS011;48953;53.110;5.592;2023-07-13T06:45:54;5.13;;;1.10;;
62861;SDS011;48953;53.110;5.592;2023-07-13T06:48:20;4.60;;;1.20;;
62861;SDS011;48953;53.110;5.592;2023-07-13T06:50:47;4.20;;;1.05;;
62861;SDS011;48953;53.110;5.592;2023-07-13T06:53:14;4.07;;;1.33;;
62861;SDS011;48953;53.110;5.592;2023-07-13T06:55:43;3.25;;;1.25;;
62861;SDS011;48953;53.110;5.592;2023-07-13T06:58:10;3.03;;;1.17;;
62861;SDS011;48953;53.110;5.592;2023-07-13T07:00:36;2.70;;;1.20;;
62861;SDS011;48953;53.110;5.592;2023-07-13T07:03:02;3.60;;;1.40;;
62861;SDS011;48953;53.110;5.592;2023-07-13T07:05:28;3.92;;;1.17;;
62861;SDS011;48953;53.110;5.592;2023-07-13T07:07:55;3.40;;;1.13;;
62861;SDS011;48953;53.110;5.592;2023-07-13T07:10:21;5.85;;;1.40;;
62861;SDS011;48953;53.110;5.592;2023-07-13T07:12:47;3.95;;;1.40;;
62861;SDS011;48953;53.110;5.592;2023-07-13T07:15:13;4.78;;;1.38;;
62861;SDS011;48953;53.110;5.592;2023-07-13T07:17:39;3.75;;;1.50;;
62861;SDS011;48953;53.110;5.592;2023-07-13T07:20:06;4.93;;;1.92;;
62861;SDS011;48953;53.110;5.592;2023-07-13T07:22:32;4.03;;;1.20;;
62861;SDS011;48953;53.110;5.592;2023-07-13T07:24:59;3.10;;;1.23;;
62861;SDS011;48953;53.110;5.592;2023-07-13T07:27:25;3.00;;;1.25;;
62861;SDS011;48953;53.110;5.592;2023-07-13T07:29:51;2.95;;;1.35;;
62861;SDS011;48953;53.110;5.592;2023-07-13T07:32:18;4.15;;;1.20;;
62861;SDS011;48953;53.110;5.592;2023-07-13T07:34:44;2.90;;;1.17;;
62861;SDS011;48953;53.110;5.592;2023-07-13T07:37:11;5.03;;;1.35;;
62861;SDS011;48953;53.110;5.592;2023-07-13T07:39:37;3.95;;;1.20;;
62861;SDS011;48953;53.110;5.592;2023-07-13T07:42:03;4.60;;;1.00;;
62861;SDS011;48953;53.110;5.592;2023-07-13T07:44:30;2.63;;;1.00;;
62861;SDS011;48953;53.110;5.592;2023-07-13T07:46:56;2.38;;;1.10;;
62861;SDS011;48953;53.110;5.592;2023-07-13T07:49:22;3.67;;;1.13;;
62861;SDS011;48953;53.110;5.592;2023-07-13T07:51:48;3.30;;;1.15;;
62861;SDS011;48953;53.110;5.592;2023-07-13T07:54:15;3.63;;;0.98;;
62861;SDS011;48953;53.110;5.592;2023-07-13T07:56:41;3.60;;;1.20;;
62861;SDS011;48953;53.110;5.592;2023-07-13T07:59:07;2.50;;;1.00;;
62861;SDS011;48953;53.110;5.592;2023-07-13T08:01:33;4.07;;;1.20;;
62861;SDS011;48953;53.110;5.592;2023-07-13T08:03:59;1.98;;;1.00;;
62861;SDS011;48953;53.110;5.592;2023-07-13T08:06:25;2.55;;;1.08;;
62861;SDS011;48953;53.110;5.592;2023-07-13T08:08:51;2.95;;;1.27;;
62861;SDS011;48953;53.110;5.592;2023-07-13T08:11:17;5.10;;;1.38;;
62861;SDS011;48953;53.110;5.592;2023-07-13T08:13:43;2.53;;;1.15;;
62861;SDS011;48953;53.110;5.592;2023-07-13T08:16:10;5.22;;;1.38;;
62861;SDS011;48953;53.110;5.592;2023-07-13T08:18:36;5.50;;;1.27;;
62861;SDS011;48953;53.110;5.592;2023-07-13T08:21:03;2.53;;;0.82;;
62861;SDS011;48953;53.110;5.592;2023-07-13T08:23:30;5.45;;;1.25;;
62861;SDS011;48953;53.110;5.592;2023-07-13T08:25:56;2.58;;;0.80;;
62861;SDS011;48953;53.110;5.592;2023-07-13T08:28:22;1.92;;;0.70;;
62861;SDS011;48953;53.110;5.592;2023-07-13T08:30:48;1.60;;;1.10;;
62861;SDS011;48953;53.110;5.592;2023-07-13T08:33:15;1.92;;;0.88;;
62861;SDS011;48953;53.110;5.592;2023-07-13T08:35:41;2.67;;;1.00;;
62861;SDS011;48953;53.110;5.592;2023-07-13T08:38:07;3.88;;;1.00;;
62861;SDS011;48953;53.110;5.592;2023-07-13T08:40:33;1.70;;;0.90;;
62861;SDS011;48953;53.110;5.592;2023-07-13T08:43:00;3.90;;;1.00;;
62861;SDS011;48953;53.110;5.592;2023-07-13T08:48:05;1.90;;;1.00;;
62861;SDS011;48953;53.110;5.592;2023-07-13T08:51:09;2.35;;;1.00;;
62861;SDS011;48953;53.110;5.592;2023-07-13T08:53:48;2.70;;;0.90;;
62861;SDS011;48953;53.110;5.592;2023-07-13T08:56:16;2.47;;;0.95;;
62861;SDS011;48953;53.110;5.592;2023-07-13T08:58:43;2.85;;;1.08;;
62861;SDS011;48953;53.110;5.592;2023-07-13T09:04:05;3.50;;;1.10;;
62861;SDS011;48953;53.110;5.592;2023-07-13T09:06:31;3.15;;;1.02;;
62861;SDS011;48953;53.110;5.592;2023-07-13T09:09:06;1.38;;;0.82;;
62861;SDS011;48953;53.110;5.592;2023-07-13T09:16:28;0.93;;;0.52;;
62861;SDS011;48953;53.110;5.592;2023-07-13T09:18:55;1.40;;;0.63;;
62861;SDS011;48953;53.110;5.592;2023-07-13T09:21:23;1.42;;;0.52;;
62861;SDS011;48953;53.110;5.592;2023-07-13T09:23:54;1.13;;;0.68;;
62861;SDS011;48953;53.110;5.592;2023-07-13T09:26:21;2.88;;;0.70;;
62861;SDS011;48953;53.110;5.592;2023-07-13T09:28:52;1.88;;;0.80;;
62861;SDS011;48953;53.110;5.592;2023-07-13T09:33:47;2.60;;;0.90;;
62861;SDS011;48953;53.110;5.592;2023-07-13T09:38:46;3.47;;;0.93;;
62861;SDS011;48953;53.110;5.592;2023-07-13T09:44:14;1.73;;;0.82;;
62861;SDS011;48953;53.110;5.592;2023-07-13T09:46:45;2.97;;;1.23;;
62861;SDS011;48953;53.110;5.592;2023-07-13T09:49:11;2.63;;;1.08;;
62861;SDS011;48953;53.110;5.592;2023-07-13T09:51:39;3.38;;;1.25;;
62861;SDS011;48953;53.110;5.592;2023-07-13T09:54:13;4.88;;;1.33;;
62861;SDS011;48953;53.110;5.592;2023-07-13T09:56:42;3.83;;;1.38;;
62861;SDS011;48953;53.110;5.592;2023-07-13T09:59:20;3.15;;;1.60;;
62861;SDS011;48953;53.110;5.592;2023-07-13T10:01:46;3.15;;;1.50;;
62861;SDS011;48953;53.110;5.592;2023-07-13T10:04:13;3.72;;;1.60;;
62861;SDS011;48953;53.110;5.592;2023-07-13T10:06:43;3.20;;;1.08;;
62861;SDS011;48953;53.110;5.592;2023-07-13T10:09:09;3.88;;;1.42;;
62861;SDS011;48953;53.110;5.592;2023-07-13T10:11:36;2.58;;;1.10;;
62861;SDS011;48953;53.110;5.592;2023-07-13T10:14:15;5.43;;;1.20;;
62861;SDS011;48953;53.110;5.592;2023-07-13T10:16:42;2.78;;;1.10;;
62861;SDS011;48953;53.110;5.592;2023-07-13T10:19:13;2.47;;;1.30;;
62861;SDS011;48953;53.110;5.592;2023-07-13T10:22:25;2.88;;;1.17;;
62861;SDS011;48953;53.110;5.592;2023-07-13T10:24:30;1.88;;;1.05;;
62861;SDS011;48953;53.110;5.592;2023-07-13T10:29:29;3.58;;;1.10;;
62861;SDS011;48953;53.110;5.592;2023-07-13T10:31:56;4.03;;;1.38;;
62861;SDS011;48953;53.110;5.592;2023-07-13T10:34:22;3.65;;;1.33;;
62861;SDS011;48953;53.110;5.592;2023-07-13T10:36:49;3.40;;;1.30;;
62861;SDS011;48953;53.110;5.592;2023-07-13T10:39:17;5.65;;;1.67;;
62861;SDS011;48953;53.110;5.592;2023-07-13T10:41:43;3.95;;;1.63;;
62861;SDS011;48953;53.110;5.592;2023-07-13T10:44:15;5.55;;;1.42;;
62861;SDS011;48953;53.110;5.592;2023-07-13T10:46:41;3.97;;;1.40;;
62861;SDS011;48953;53.110;5.592;2023-07-13T10:49:09;3.40;;;1.25;;
62861;SDS011;48953;53.110;5.592;2023-07-13T10:51:37;2.47;;;1.20;;
62861;SDS011;48953;53.110;5.592;2023-07-13T10:56:35;2.63;;;1.60;;
62861;SDS011;48953;53.110;5.592;2023-07-13T10:59:02;4.47;;;1.70;;
62861;SDS011;48953;53.110;5.592;2023-07-13T11:01:39;3.08;;;1.50;;
62861;SDS011;48953;53.110;5.592;2023-07-13T11:04:08;3.63;;;1.45;;
62861;SDS011;48953;53.110;5.592;2023-07-13T11:06:37;3.55;;;1.35;;
62861;SDS011;48953;53.110;5.592;2023-07-13T11:11:55;3.63;;;1.80;;
62861;SDS011;48953;53.110;5.592;2023-07-13T11:16:52;3.55;;;1.20;;
62861;SDS011;48953;53.110;5.592;2023-07-13T11:24:30;4.75;;;1.60;;
62861;SDS011;48953;53.110;5.592;2023-07-13T11:27:31;5.80;;;1.33;;
62861;SDS011;48953;53.110;5.592;2023-07-13T11:30:09;3.55;;;1.35;;
62861;SDS011;48953;53.110;5.592;2023-07-13T11:32:35;3.25;;;1.30;;
62861;SDS011;48953;53.110;5.592;2023-07-13T11:35:01;4.07;;;1.30;;
62861;SDS011;48953;53.110;5.592;2023-07-13T11:37:27;3.67;;;1.20;;
62861;SDS011;48953;53.110;5.592;2023-07-13T11:39:55;3.60;;;1.30;;
62861;SDS011;48953;53.110;5.592;2023-07-13T11:42:21;2.25;;;1.40;;
62861;SDS011;48953;53.110;5.592;2023-07-13T11:44:48;3.03;;;1.52;;
62861;SDS011;48953;53.110;5.592;2023-07-13T11:47:17;4.32;;;1.50;;
62861;SDS011;48953;53.110;5.592;2023-07-13T11:49:48;4.00;;;1.55;;
62861;SDS011;48953;53.110;5.592;2023-07-13T11:52:15;4.75;;;1.35;;
62861;SDS011;48953;53.110;5.592;2023-07-13T11:54:51;3.13;;;1.60;;
62861;SDS011;48953;53.110;5.592;2023-07-13T11:57:33;5.25;;;1.90;;
62861;SDS011;48953;53.110;5.592;2023-07-13T12:00:04;4.32;;;1.58;;
62861;SDS011;48953;53.110;5.592;2023-07-13T12:02:36;7.43;;;1.70;;
62861;SDS011;48953;53.110;5.592;2023-07-13T12:05:04;2.35;;;1.20;;
62861;SDS011;48953;53.110;5.592;2023-07-13T12:07:31;3.63;;;1.42;;
62861;SDS011;48953;53.110;5.592;2023-07-13T12:10:40;5.07;;;1.13;;
62861;SDS011;48953;53.110;5.592;2023-07-13T12:12:57;3.40;;;1.30;;
62861;SDS011;48953;53.110;5.592;2023-07-13T12:15:41;4.03;;;1.60;;
62861;SDS011;48953;53.110;5.592;2023-07-13T12:18:13;5.45;;;1.60;;
62861;SDS011;48953;53.110;5.592;2023-07-13T12:20:40;4.28;;;1.88;;
62861;SDS011;48953;53.110;5.592;2023-07-13T12:23:11;5.47;;;1.80;;
62861;SDS011;48953;53.110;5.592;2023-07-13T12:25:40;4.32;;;1.98;;
62861;SDS011;48953;53.110;5.592;2023-07-13T12:31:23;5.87;;;2.17;;
62861;SDS011;48953;53.110;5.592;2023-07-13T12:33:56;5.60;;;2.00;;
62861;SDS011;48953;53.110;5.592;2023-07-13T12:36:22;5.35;;;2.05;;
62861;SDS011;48953;53.110;5.592;2023-07-13T12:38:48;7.40;;;2.20;;
62861;SDS011;48953;53.110;5.592;2023-07-13T12:41:16;4.13;;;2.10;;
62861;SDS011;48953;53.110;5.592;2023-07-13T12:43:42;4.28;;;1.80;;
62861;SDS011;48953;53.110;5.592;2023-07-13T12:46:15;5.20;;;2.67;;
62861;SDS011;48953;53.110;5.592;2023-07-13T12:48:42;4.30;;;1.83;;
62861;SDS011;48953;53.110;5.592;2023-07-13T12:51:11;3.88;;;1.80;;
62861;SDS011;48953;53.110;5.592;2023-07-13T12:53:39;5.72;;;2.50;;
62861;SDS011;48953;53.110;5.592;2023-07-13T12:56:08;5.50;;;2.43;;
62861;SDS011;48953;53.110;5.592;2023-07-13T12:58:36;5.07;;;2.20;;
62861;SDS011;48953;53.110;5.592;2023-07-13T13:01:03;3.78;;;2.00;;
62861;SDS011;48953;53.110;5.592;2023-07-13T13:03:36;6.47;;;2.47;;
62861;SDS011;48953;53.110;5.592;2023-07-13T13:06:17;6.10;;;2.00;;
62861;SDS011;48953;53.110;5.592;2023-07-13T13:08:48;6.50;;;2.13;;
62861;SDS011;48953;53.110;5.592;2023-07-13T13:11:14;5.70;;;2.47;;
62861;SDS011;48953;53.110;5.592;2023-07-13T13:13:41;7.55;;;2.80;;
62861;SDS011;48953;53.110;5.592;2023-07-13T13:18:43;6.05;;;2.03;;
62861;SDS011;48953;53.110;5.592;2023-07-13T13:21:09;5.88;;;2.30;;
62861;SDS011;48953;53.110;5.592;2023-07-13T13:23:36;6.53;;;2.15;;
62861;SDS011;48953;53.110;5.592;2023-07-13T13:26:02;4.95;;;2.05;;
62861;SDS011;48953;53.110;5.592;2023-07-13T13:28:29;5.15;;;2.33;;
62861;SDS011;48953;53.110;5.592;2023-07-13T13:30:55;7.03;;;2.00;;
62861;SDS011;48953;53.110;5.592;2023-07-13T13:33:21;7.07;;;2.20;;
62861;SDS011;48953;53.110;5.592;2023-07-13T13:35:48;7.78;;;2.10;;
62861;SDS011;48953;53.110;5.592;2023-07-13T13:38:19;5.68;;;2.28;;
62861;SDS011;48953;53.110;5.592;2023-07-13T13:40:46;3.80;;;1.73;;
62861;SDS011;48953;53.110;5.592;2023-07-13T13:43:15;5.15;;;2.10;;
62861;SDS011;48953;53.110;5.592;2023-07-13T13:45:42;8.07;;;2.50;;
62861;SDS011;48953;53.110;5.592;2023-07-13T13:48:13;5.40;;;1.80;;
62861;SDS011;48953;53.110;5.592;2023-07-13T13:50:40;6.82;;;2.08;;
62861;SDS011;48953;53.110;5.592;2023-07-13T13:53:09;5.00;;;1.80;;
62861;SDS011;48953;53.110;5.592;2023-07-13T13:58:01;4.05;;;1.75;;
62861;SDS011;48953;53.110;5.592;2023-07-13T14:00:28;5.97;;;1.75;;
62861;SDS011;48953;53.110;5.592;2023-07-13T14:02:55;5.72;;;2.03;;
62861;SDS011;48953;53.110;5.592;2023-07-13T14:05:25;6.68;;;2.55;;
62861;SDS011;48953;53.110;5.592;2023-07-13T14:07:51;4.80;;;1.67;;
62861;SDS011;48953;53.110;5.592;2023-07-13T14:10:18;5.78;;;2.13;;
62861;SDS011;48953;53.110;5.592;2023-07-13T14:12:48;6.53;;;1.48;;
62861;SDS011;48953;53.110;5.592;2023-07-13T14:15:26;4.93;;;2.00;;
62861;SDS011;48953;53.110;5.592;2023-07-13T14:17:53;4.22;;;2.05;;
62861;SDS011;48953;53.110;5.592;2023-07-13T14:20:20;5.25;;;2.15;;
62861;SDS011;48953;53.110;5.592;2023-07-13T14:22:48;6.72;;;2.22;;
62861;SDS011;48953;53.110;5.592;2023-07-13T14:25:15;4.80;;;1.88;;
62861;SDS011;48953;53.110;5.592;2023-07-13T14:27:42;5.00;;;2.00;;
62861;SDS011;48953;53.110;5.592;2023-07-13T14:30:18;6.25;;;2.30;;
62861;SDS011;48953;53.110;5.592;2023-07-13T14:32:45;6.45;;;2.40;;
62861;SDS011;48953;53.110;5.592;2023-07-13T14:35:13;5.57;;;2.22;;
62861;SDS011;48953;53.110;5.592;2023-07-13T14:37:39;4.65;;;2.10;;
62861;SDS011;48953;53.110;5.592;2023-07-13T14:40:12;5.47;;;2.28;;
62861;SDS011;48953;53.110;5.592;2023-07-13T14:42:39;4.93;;;1.90;;
62861;SDS011;48953;53.110;5.592;2023-07-13T14:45:05;3.88;;;1.90;;
62861;SDS011;48953;53.110;5.592;2023-07-13T14:47:31;9.68;;;2.25;;
62861;SDS011;48953;53.110;5.592;2023-07-13T14:49:57;7.55;;;2.33;;
62861;SDS011;48953;53.110;5.592;2023-07-13T14:52:23;6.13;;;1.95;;
62861;SDS011;48953;53.110;5.592;2023-07-13T14:54:51;4.43;;;2.20;;
62861;SDS011;48953;53.110;5.592;2023-07-13T14:57:18;7.82;;;2.20;;
62861;SDS011;48953;53.110;5.592;2023-07-13T14:59:45;5.07;;;2.17;;
62861;SDS011;48953;53.110;5.592;2023-07-13T15:02:22;6.38;;;2.38;;
62861;SDS011;48953;53.110;5.592;2023-07-13T15:04:58;7.78;;;2.25;;
62861;SDS011;48953;53.110;5.592;2023-07-13T15:07:25;7.03;;;2.50;;
62861;SDS011;48953;53.110;5.592;2023-07-13T15:09:51;5.90;;;2.00;;
62861;SDS011;48953;53.110;5.592;2023-07-13T15:12:17;5.88;;;2.20;;
62861;SDS011;48953;53.110;5.592;2023-07-13T15:14:43;8.27;;;1.90;;
62861;SDS011;48953;53.110;5.592;2023-07-13T15:17:24;8.93;;;2.67;;
62861;SDS011;48953;53.110;5.592;2023-07-13T15:19:52;6.85;;;2.80;;
62861;SDS011;48953;53.110;5.592;2023-07-13T15:22:18;4.15;;;2.08;;
62861;SDS011;48953;53.110;5.592;2023-07-13T15:24:44;6.60;;;2.58;;
62861;SDS011;48953;53.110;5.592;2023-07-13T15:27:12;6.78;;;2.10;;
62861;SDS011;48953;53.110;5.592;2023-07-13T15:29:38;6.25;;;2.20;;
62861;SDS011;48953;53.110;5.592;2023-07-13T15:32:10;6.03;;;2.47;;